Terminal Aerodrome Forecast
Issued by NWS Sterling, VA

Home | Current Version | Previous Version | Text Only | Print | Product List | Glossary On
Versions: 1 2 3 4 5 6 7 8 9 10 11 12 13 14 15 16 17 18 19 20 21 22 23 24 25 26
000
FTUS41 KLWX 212100 AAB
TAFBWI
TAF AMD
KBWI 212158Z 2122/2224 24006KT P6SM VCTS BKN050CB
     FM220100 27004KT P6SM SCT060
     FM220400 29010KT P6SM FEW080
     FM221400 31013G22KT P6SM SCT050
     FM222300 32006KT P6SM SKC=

USA.gov is the U.S. government's official web portal to all federal, state and local government web resources and services.